sensor_id;sensor_type;location;lat;lon;timestamp;pressure;altitude;pressure_sealevel;temperature;humidity
51287;BME280;37364;46.974;18.916;2023-07-20T00:00:48;155551.34;;;20.60;100.00
51287;BME280;37364;46.974;18.916;2023-07-20T00:03:34;155551.34;;;20.60;100.00
51287;BME280;37364;46.974;18.916;2023-07-20T00:06:04;155543.50;;;20.57;100.00
51287;BME280;37364;46.974;18.916;2023-07-20T00:08:34;155553.97;;;20.61;100.00
51287;BME280;37364;46.974;18.916;2023-07-20T00:11:07;155568.31;;;20.66;100.00
51287;BME280;37364;46.974;18.916;2023-07-20T00:13:38;155557.91;;;20.62;100.00
51287;BME280;37364;46.974;18.916;2023-07-20T00:16:08;155559.19;;;20.63;100.00
51287;BME280;37364;46.974;18.916;2023-07-20T00:18:38;155553.97;;;20.61;100.00
51287;BME280;37364;46.974;18.916;2023-07-20T00:21:08;155587.88;;;20.74;100.00
51287;BME280;37364;46.974;18.916;2023-07-20T00:23:39;155563.09;;;20.64;100.00
51287;BME280;37364;46.974;18.916;2023-07-20T00:26:11;155576.09;;;20.69;100.00
51287;BME280;37364;46.974;18.916;2023-07-20T00:28:43;155591.75;;;20.76;100.00
51287;BME280;37364;46.974;18.916;2023-07-20T00:31:13;155581.31;;;20.71;100.00
51287;BME280;37364;46.974;18.916;2023-07-20T00:33:43;155595.66;;;20.77;100.00
51287;BME280;37364;46.974;18.916;2023-07-20T00:36:14;155586.53;;;20.73;100.00
51287;BME280;37364;46.974;18.916;2023-07-20T00:38:44;155595.66;;;20.77;100.00
51287;BME280;37364;46.974;18.916;2023-07-20T00:41:18;155577.44;;;20.70;100.00
51287;BME280;37364;46.974;18.916;2023-07-20T00:43:48;155606.09;;;20.81;100.00
51287;BME280;37364;46.974;18.916;2023-07-20T00:46:22;155611.28;;;20.83;100.00
51287;BME280;37364;46.974;18.916;2023-07-20T00:48:53;155610.00;;;20.83;100.00
51287;BME280;37364;46.974;18.916;2023-07-20T00:51:25;155607.41;;;20.82;100.00
51287;BME280;37364;46.974;18.916;2023-07-20T00:53:57;155611.28;;;20.83;100.00
51287;BME280;37364;46.974;18.916;2023-07-20T00:56:30;155586.53;;;20.73;100.00
51287;BME280;37364;46.974;18.916;2023-07-20T00:59:00;155590.44;;;20.75;100.00
51287;BME280;37364;46.974;18.916;2023-07-20T01:01:30;155589.16;;;20.74;100.00
51287;BME280;37364;46.974;18.916;2023-07-20T01:04:01;155587.88;;;20.74;100.00
51287;BME280;37364;46.974;18.916;2023-07-20T01:06:37;155581.31;;;20.71;100.00
51287;BME280;37364;46.974;18.916;2023-07-20T01:09:13;155561.75;;;20.64;100.00
51287;BME280;37364;46.974;18.916;2023-07-20T01:11:56;155539.59;;;20.55;100.00
51287;BME280;37364;46.974;18.916;2023-07-20T01:14:31;155533.09;;;20.52;100.00
51287;BME280;37364;46.974;18.916;2023-07-20T01:17:03;155520.03;;;20.47;100.00
51287;BME280;37364;46.974;18.916;2023-07-20T01:19:33;155514.81;;;20.45;100.00
51287;BME280;37364;46.974;18.916;2023-07-20T01:22:11;155517.41;;;20.46;100.00
51287;BME280;37364;46.974;18.916;2023-07-20T01:24:58;155486.13;;;20.34;100.00
51287;BME280;37364;46.974;18.916;2023-07-20T01:28:02;155486.13;;;20.34;100.00
51287;BME280;37364;46.974;18.916;2023-07-20T01:30:46;155493.97;;;20.37;100.00
51287;BME280;37364;46.974;18.916;2023-07-20T01:33:25;155469.22;;;20.27;100.00
51287;BME280;37364;46.974;18.916;2023-07-20T01:35:57;155465.31;;;20.26;100.00
51287;BME280;37364;46.974;18.916;2023-07-20T01:38:29;155450.97;;;20.20;100.00
51287;BME280;37364;46.974;18.916;2023-07-20T01:40:59;155454.88;;;20.22;100.00
51287;BME280;37364;46.974;18.916;2023-07-20T01:43:30;155460.09;;;20.24;100.00
51287;BME280;37364;46.974;18.916;2023-07-20T01:46:00;155458.81;;;20.23;100.00
51287;BME280;37364;46.974;18.916;2023-07-20T01:48:33;155457.47;;;20.23;100.00
51287;BME280;37364;46.974;18.916;2023-07-20T01:51:03;155436.63;;;20.14;100.00
51287;BME280;37364;46.974;18.916;2023-07-20T01:53:33;155427.50;;;20.11;100.00
51287;BME280;37364;46.974;18.916;2023-07-20T01:56:04;155413.22;;;20.05;100.00
51287;BME280;37364;46.974;18.916;2023-07-20T01:58:35;155431.41;;;20.12;100.00
51287;BME280;37364;46.974;18.916;2023-07-20T02:01:05;155421.00;;;20.08;100.00
51287;BME280;37364;46.974;18.916;2023-07-20T02:03:38;155426.19;;;20.10;100.00
51287;BME280;37364;46.974;18.916;2023-07-20T02:06:08;155428.84;;;20.11;100.00
51287;BME280;37364;46.974;18.916;2023-07-20T02:08:38;155409.28;;;20.04;100.00
51287;BME280;37364;46.974;18.916;2023-07-20T02:11:09;155411.88;;;20.05;100.00
51287;BME280;37364;46.974;18.916;2023-07-20T02:13:39;155421.00;;;20.08;100.00
51287;BME280;37364;46.974;18.916;2023-07-20T02:16:09;155422.28;;;20.09;100.00
51287;BME280;37364;46.974;18.916;2023-07-20T02:18:42;155424.91;;;20.10;100.00
51287;BME280;37364;46.974;18.916;2023-07-20T02:21:12;155398.88;;;20.00;100.00
51287;BME280;37364;46.974;18.916;2023-07-20T02:23:43;155405.38;;;20.02;100.00
51287;BME280;37364;46.974;18.916;2023-07-20T02:26:13;155398.88;;;20.00;100.00
51287;BME280;37364;46.974;18.916;2023-07-20T02:28:43;155404.06;;;20.02;100.00
51287;BME280;37364;46.974;18.916;2023-07-20T02:31:14;155383.25;;;19.93;100.00
51287;BME280;37364;46.974;18.916;2023-07-20T02:33:47;155379.31;;;19.92;100.00
51287;BME280;37364;46.974;18.916;2023-07-20T02:36:17;155421.00;;;20.08;100.00
51287;BME280;37364;46.974;18.916;2023-07-20T02:38:47;155379.31;;;19.92;100.00
51287;BME280;37364;46.974;18.916;2023-07-20T02:41:18;155361.06;;;19.85;100.00
51287;BME280;37364;46.974;18.916;2023-07-20T02:43:48;155336.31;;;19.75;100.00
51287;BME280;37364;46.974;18.916;2023-07-20T02:46:18;155366.28;;;19.87;100.00
51287;BME280;37364;46.974;18.916;2023-07-20T02:48:51;155333.75;;;19.74;100.00
51287;BME280;37364;46.974;18.916;2023-07-20T02:51:22;155303.72;;;19.62;100.00
51287;BME280;37364;46.974;18.916;2023-07-20T02:53:53;155311.50;;;19.65;100.00
51287;BME280;37364;46.974;18.916;2023-07-20T02:56:23;155320.63;;;19.69;100.00
51287;BME280;37364;46.974;18.916;2023-07-20T02:58:53;155316.72;;;19.67;100.00
51287;BME280;37364;46.974;18.916;2023-07-20T03:01:24;155303.72;;;19.62;100.00
51287;BME280;37364;46.974;18.916;2023-07-20T03:03:59;155298.53;;;19.60;100.00
51287;BME280;37364;46.974;18.916;2023-07-20T03:06:29;155293.25;;;19.58;100.00
51287;BME280;37364;46.974;18.916;2023-07-20T03:09:04;155293.25;;;19.58;100.00
51287;BME280;37364;46.974;18.916;2023-07-20T03:11:36;155265.94;;;19.47;100.00
51287;BME280;37364;46.974;18.916;2023-07-20T03:14:06;155249.03;;;19.41;100.00
51287;BME280;37364;46.974;18.916;2023-07-20T03:16:38;155230.78;;;19.33;100.00
51287;BME280;37364;46.974;18.916;2023-07-20T03:19:11;155224.28;;;19.31;100.00
51287;BME280;37364;46.974;18.916;2023-07-20T03:21:42;155199.53;;;19.21;100.00
51287;BME280;37364;46.974;18.916;2023-07-20T03:24:12;155212.53;;;19.26;100.00
51287;BME280;37364;46.974;18.916;2023-07-20T03:26:42;155243.81;;;19.39;100.00
51287;BME280;37364;46.974;18.916;2023-07-20T03:29:12;155222.94;;;19.30;100.00
51287;BME280;37364;46.974;18.916;2023-07-20T03:31:45;155200.84;;;19.22;100.00
51287;BME280;37364;46.974;18.916;2023-07-20T03:34:19;155199.53;;;19.21;100.00
51287;BME280;37364;46.974;18.916;2023-07-20T03:36:50;155226.88;;;19.32;100.00
51287;BME280;37364;46.974;18.916;2023-07-20T03:39:20;155209.94;;;19.25;100.00
51287;BME280;37364;46.974;18.916;2023-07-20T03:41:52;155229.50;;;19.33;100.00
51287;BME280;37364;46.974;18.916;2023-07-20T03:44:22;155233.34;;;19.34;100.00
51287;BME280;37364;46.974;18.916;2023-07-20T03:46:52;155243.81;;;19.39;100.00
51287;BME280;37364;46.974;18.916;2023-07-20T03:49:25;155246.41;;;19.40;100.00
51287;BME280;37364;46.974;18.916;2023-07-20T03:51:56;155249.03;;;19.41;100.00
51287;BME280;37364;46.974;18.916;2023-07-20T03:54:26;155262.03;;;19.46;100.00
51287;BME280;37364;46.974;18.916;2023-07-20T03:56:56;155256.81;;;19.44;100.00
51287;BME280;37364;46.974;18.916;2023-07-20T03:59:27;155265.94;;;19.47;100.00
51287;BME280;37364;46.974;18.916;2023-07-20T04:01:58;155265.94;;;19.47;100.00
51287;BME280;37364;46.974;18.916;2023-07-20T04:04:30;155268.56;;;19.48;100.00
51287;BME280;37364;46.974;18.916;2023-07-20T04:07:01;155268.56;;;19.48;100.00
51287;BME280;37364;46.974;18.916;2023-07-20T04:09:31;155285.47;;;19.55;100.00
51287;BME280;37364;46.974;18.916;2023-07-20T04:12:02;155295.91;;;19.59;100.00
51287;BME280;37364;46.974;18.916;2023-07-20T04:14:32;155301.09;;;19.61;100.00
51287;BME280;37364;46.974;18.916;2023-07-20T04:17:03;155323.28;;;19.70;100.00
51287;BME280;37364;46.974;18.916;2023-07-20T04:19:36;155332.41;;;19.73;100.00
51287;BME280;37364;46.974;18.916;2023-07-20T04:22:06;155327.19;;;19.71;100.00
51287;BME280;37364;46.974;18.916;2023-07-20T04:24:36;155340.22;;;19.77;100.00
51287;BME280;37364;46.974;18.916;2023-07-20T04:27:06;155353.28;;;19.82;100.00
51287;BME280;37364;46.974;18.916;2023-07-20T04:29:37;155353.28;;;19.82;100.00
51287;BME280;37364;46.974;18.916;2023-07-20T04:32:07;155387.13;;;19.95;100.00
51287;BME280;37364;46.974;18.916;2023-07-20T04:34:40;155388.44;;;19.95;100.00
51287;BME280;37364;46.974;18.916;2023-07-20T04:37:10;155423.63;;;20.09;100.00
51287;BME280;37364;46.974;18.916;2023-07-20T04:39:41;155448.38;;;20.19;100.00
51287;BME280;37364;46.974;18.916;2023-07-20T04:42:11;155450.97;;;20.20;100.00
51287;BME280;37364;46.974;18.916;2023-07-20T04:44:44;155483.56;;;20.33;100.00
51287;BME280;37364;46.974;18.916;2023-07-20T04:47:16;155504.41;;;20.41;100.00
51287;BME280;37364;46.974;18.916;2023-07-20T04:49:50;155512.19;;;20.44;100.00
51287;BME280;37364;46.974;18.916;2023-07-20T04:52:23;155556.56;;;20.62;100.00
51287;BME280;37364;46.974;18.916;2023-07-20T04:55:09;155580.03;;;20.71;100.00
51287;BME280;37364;46.974;18.916;2023-07-20T04:57:40;155595.66;;;20.77;100.00
51287;BME280;37364;46.974;18.916;2023-07-20T05:00:12;155620.44;;;20.87;100.00
51287;BME280;37364;46.974;18.916;2023-07-20T05:02:44;155663.47;;;21.04;100.00
51287;BME280;37364;46.974;18.916;2023-07-20T05:05:18;155707.78;;;21.21;100.00
51287;BME280;37364;46.974;18.916;2023-07-20T05:07:48;155744.28;;;21.36;100.00
51287;BME280;37364;46.974;18.916;2023-07-20T05:10:19;155789.97;;;21.53;100.00
51287;BME280;37364;46.974;18.916;2023-07-20T05:12:49;155823.88;;;21.67;100.00
51287;BME280;37364;46.974;18.916;2023-07-20T05:15:19;155865.59;;;21.83;100.00
51287;BME280;37364;46.974;18.916;2023-07-20T05:17:52;155945.16;;;22.15;100.00
51287;BME280;37364;46.974;18.916;2023-07-20T05:20:26;156018.28;;;22.43;100.00
51287;BME280;37364;46.974;18.916;2023-07-20T05:23:00;156063.94;;;22.61;100.00
51287;BME280;37364;46.974;18.916;2023-07-20T05:25:30;156023.50;;;22.45;100.00
51287;BME280;37364;46.974;18.916;2023-07-20T05:28:01;156049.59;;;22.56;100.00
51287;BME280;37364;46.974;18.916;2023-07-20T05:30:31;156020.91;;;22.44;100.00
51287;BME280;37364;46.974;18.916;2023-07-20T05:33:04;156101.81;;;22.76;100.00
51287;BME280;37364;46.974;18.916;2023-07-20T05:35:38;156195.84;;;23.13;100.00
51287;BME280;37364;46.974;18.916;2023-07-20T05:38:09;156221.94;;;23.23;100.00
51287;BME280;37364;46.974;18.916;2023-07-20T05:40:40;156302.84;;;23.55;100.00
51287;BME280;37364;46.974;18.916;2023-07-20T05:43:11;156283.25;;;23.47;100.00
51287;BME280;37364;46.974;18.916;2023-07-20T05:45:42;156391.69;;;23.90;100.00
51287;BME280;37364;46.974;18.916;2023-07-20T05:48:12;156412.56;;;23.98;100.00
51287;BME280;37364;46.974;18.916;2023-07-20T05:50:46;156374.69;;;23.83;100.00
51287;BME280;37364;46.974;18.916;2023-07-20T05:53:16;156376.03;;;23.84;100.00
51287;BME280;37364;46.974;18.916;2023-07-20T05:55:52;156415.22;;;23.99;100.00
51287;BME280;37364;46.974;18.916;2023-07-20T05:58:22;156485.72;;;24.27;100.00
51287;BME280;37364;46.974;18.916;2023-07-20T06:00:53;156519.66;;;24.40;100.00
51287;BME280;37364;46.974;18.916;2023-07-20T06:03:24;156485.72;;;24.27;100.00
51287;BME280;37364;46.974;18.916;2023-07-20T06:06:01;156502.69;;;24.34;100.00
51287;BME280;37364;46.974;18.916;2023-07-20T06:08:31;156569.34;;;24.60;100.00
51287;BME280;37364;46.974;18.916;2023-07-20T06:11:01;156544.47;;;24.50;100.00
51287;BME280;37364;46.974;18.916;2023-07-20T06:13:31;156539.25;;;24.48;100.00
51287;BME280;37364;46.974;18.916;2023-07-20T06:16:02;156540.59;;;24.48;100.00
51287;BME280;37364;46.974;18.916;2023-07-20T06:18:32;156526.22;;;24.43;100.00
51287;BME280;37364;46.974;18.916;2023-07-20T06:21:05;156518.34;;;24.40;100.00
51287;BME280;37364;46.974;18.916;2023-07-20T06:23:35;156564.13;;;24.58;100.00
51287;BME280;37364;46.974;18.916;2023-07-20T06:26:06;156555.00;;;24.54;100.00
51287;BME280;37364;46.974;18.916;2023-07-20T06:28:36;156513.13;;;24.38;100.00
51287;BME280;37364;46.974;18.916;2023-07-20T06:31:06;156497.47;;;24.32;100.00
51287;BME280;37364;46.974;18.916;2023-07-20T06:33:37;156502.69;;;24.34;100.00
51287;BME280;37364;46.974;18.916;2023-07-20T06:36:10;156493.53;;;24.30;100.00
51287;BME280;37364;46.974;18.916;2023-07-20T06:38:40;156446.53;;;24.12;100.00
51287;BME280;37364;46.974;18.916;2023-07-20T06:41:30;156436.09;;;24.07;100.00
51287;BME280;37364;46.974;18.916;2023-07-20T06:44:03;156428.25;;;24.04;100.00
51287;BME280;37364;46.974;18.916;2023-07-20T06:46:35;156477.88;;;24.24;100.00
51287;BME280;37364;46.974;18.916;2023-07-20T06:49:06;156494.88;;;24.31;100.00
51287;BME280;37364;46.974;18.916;2023-07-20T06:51:43;156470.06;;;24.21;100.00
51287;BME280;37364;46.974;18.916;2023-07-20T06:54:13;156496.19;;;24.31;100.00
51287;BME280;37364;46.974;18.916;2023-07-20T06:56:49;156494.88;;;24.31;100.00
51287;BME280;37364;46.974;18.916;2023-07-20T06:59:22;156535.38;;;24.46;100.00
51287;BME280;37364;46.974;18.916;2023-07-20T07:01:53;156646.44;;;24.90;100.00
51287;BME280;37364;46.974;18.916;2023-07-20T07:04:23;156739.25;;;25.26;100.00
51287;BME280;37364;46.974;18.916;2023-07-20T07:06:57;156826.81;;;25.61;100.00
51287;BME280;37364;46.974;18.916;2023-07-20T07:09:27;156905.31;;;25.92;100.00
51287;BME280;37364;46.974;18.916;2023-07-20T07:11:57;156992.88;;;26.26;100.00
51287;BME280;37364;46.974;18.916;2023-07-20T07:14:27;157019.03;;;26.36;100.00
51287;BME280;37364;46.974;18.916;2023-07-20T07:16:59;156992.88;;;26.26;100.00
51287;BME280;37364;46.974;18.916;2023-07-20T07:19:31;156977.22;;;26.20;100.00
51287;BME280;37364;46.974;18.916;2023-07-20T07:22:06;157038.66;;;26.44;99.15
51287;BME280;37364;46.974;18.916;2023-07-20T07:24:36;157045.22;;;26.47;99.42
51287;BME280;37364;46.974;18.916;2023-07-20T07:27:09;157109.34;;;26.72;98.98
51287;BME280;37364;46.974;18.916;2023-07-20T07:29:39;157104.06;;;26.70;96.63
51287;BME280;37364;46.974;18.916;2023-07-20T07:32:11;157115.88;;;26.74;99.23
51287;BME280;37364;46.974;18.916;2023-07-20T07:34:43;157162.94;;;26.93;95.85
51287;BME280;37364;46.974;18.916;2023-07-20T07:37:18;157236.22;;;27.21;98.69
51287;BME280;37364;46.974;18.916;2023-07-20T07:39:48;157174.75;;;26.97;92.08
51287;BME280;37364;46.974;18.916;2023-07-20T07:42:18;157096.25;;;26.67;94.30
51287;BME280;37364;46.974;18.916;2023-07-20T07:44:51;157130.28;;;26.80;95.95
51287;BME280;37364;46.974;18.916;2023-07-20T07:47:21;157207.41;;;27.10;92.87
51287;BME280;37364;46.974;18.916;2023-07-20T07:49:51;157173.41;;;26.97;93.11
51287;BME280;37364;46.974;18.916;2023-07-20T07:52:24;157274.22;;;27.36;89.17
51287;BME280;37364;46.974;18.916;2023-07-20T07:54:57;157267.66;;;27.34;86.91
51287;BME280;37364;46.974;18.916;2023-07-20T07:57:27;157196.97;;;27.06;84.04
51287;BME280;37364;46.974;18.916;2023-07-20T07:59:57;157357.94;;;27.69;83.45
51287;BME280;37364;46.974;18.916;2023-07-20T08:02:30;157329.19;;;27.58;81.21
51287;BME280;37364;46.974;18.916;2023-07-20T08:05:00;157304.31;;;27.48;85.24
51287;BME280;37364;46.974;18.916;2023-07-20T08:07:33;157312.13;;;27.51;83.98
51287;BME280;37364;46.974;18.916;2023-07-20T08:10:05;157441.75;;;28.02;84.19
51287;BME280;37364;46.974;18.916;2023-07-20T08:12:35;157364.50;;;27.72;79.94
51287;BME280;37364;46.974;18.916;2023-07-20T08:15:07;157372.31;;;27.75;78.78
51287;BME280;37364;46.974;18.916;2023-07-20T08:17:37;157301.69;;;27.47;80.47
51287;BME280;37364;46.974;18.916;2023-07-20T08:20:09;157301.69;;;27.47;80.59
51287;BME280;37364;46.974;18.916;2023-07-20T08:22:42;157250.66;;;27.27;78.56
51287;BME280;37364;46.974;18.916;2023-07-20T08:25:14;157343.53;;;27.64;75.38
51287;BME280;37364;46.974;18.916;2023-07-20T08:27:44;157500.66;;;28.25;78.16
51287;BME280;37364;46.974;18.916;2023-07-20T08:30:15;157440.44;;;28.02;77.01
51287;BME280;37364;46.974;18.916;2023-07-20T08:32:45;157580.56;;;28.56;81.11
51287;BME280;37364;46.974;18.916;2023-07-20T08:35:16;157648.59;;;28.83;76.15
51287;BME280;37364;46.974;18.916;2023-07-20T08:37:51;157626.34;;;28.74;75.67
51287;BME280;37364;46.974;18.916;2023-07-20T08:40:24;157593.63;;;28.62;76.39
51287;BME280;37364;46.974;18.916;2023-07-20T08:42:54;157657.78;;;28.87;70.68
51287;BME280;37364;46.974;18.916;2023-07-20T08:45:26;157676.13;;;28.94;70.24
51287;BME280;37364;46.974;18.916;2023-07-20T08:48:00;157627.66;;;28.75;70.89
51287;BME280;37364;46.974;18.916;2023-07-20T08:50:30;157594.97;;;28.62;75.62
51287;BME280;37364;46.974;18.916;2023-07-20T08:53:03;157716.69;;;29.10;71.19
51287;BME280;37364;46.974;18.916;2023-07-20T08:55:34;157555.63;;;28.47;71.63
51287;BME280;37364;46.974;18.916;2023-07-20T08:58:08;157592.31;;;28.61;71.03
51287;BME280;37364;46.974;18.916;2023-07-20T09:00:38;157754.75;;;29.25;74.74
51287;BME280;37364;46.974;18.916;2023-07-20T09:03:13;157718.00;;;29.10;62.55
51287;BME280;37364;46.974;18.916;2023-07-20T09:05:44;157791.41;;;29.39;63.68
51287;BME280;37364;46.974;18.916;2023-07-20T09:08:17;157845.13;;;29.60;61.58
51287;BME280;37364;46.974;18.916;2023-07-20T09:10:48;157852.94;;;29.63;60.97
51287;BME280;37364;46.974;18.916;2023-07-20T09:13:18;157698.34;;;29.03;61.41
51287;BME280;37364;46.974;18.916;2023-07-20T09:15:53;157715.41;;;29.09;62.52
51287;BME280;37364;46.974;18.916;2023-07-20T09:18:24;157808.41;;;29.46;62.41
51287;BME280;37364;46.974;18.916;2023-07-20T09:20:58;157808.41;;;29.46;65.60
51287;BME280;37364;46.974;18.916;2023-07-20T09:23:37;157817.59;;;29.49;61.21
51287;BME280;37364;46.974;18.916;2023-07-20T09:26:10;157723.28;;;29.12;60.34
51287;BME280;37364;46.974;18.916;2023-07-20T09:28:49;157674.81;;;28.93;64.17
51287;BME280;37364;46.974;18.916;2023-07-20T09:31:22;157757.34;;;29.26;63.23
51287;BME280;37364;46.974;18.916;2023-07-20T09:33:53;157807.13;;;29.45;63.56
51287;BME280;37364;46.974;18.916;2023-07-20T09:36:26;157787.47;;;29.37;58.93
51287;BME280;37364;46.974;18.916;2023-07-20T09:39:03;157695.75;;;29.02;61.19
51287;BME280;37364;46.974;18.916;2023-07-20T09:41:40;157672.19;;;28.92;62.93
51287;BME280;37364;46.974;18.916;2023-07-20T09:44:14;157787.47;;;29.37;62.95
51287;BME280;37364;46.974;18.916;2023-07-20T09:46:48;157893.59;;;29.79;59.46
51287;BME280;37364;46.974;18.916;2023-07-20T09:49:21;157900.19;;;29.82;59.10
51287;BME280;37364;46.974;18.916;2023-07-20T09:51:56;157752.09;;;29.24;58.95
51287;BME280;37364;46.974;18.916;2023-07-20T09:54:30;157824.13;;;29.52;57.54
51287;BME280;37364;46.974;18.916;2023-07-20T09:57:02;157888.34;;;29.77;60.39
51287;BME280;37364;46.974;18.916;2023-07-20T09:59:32;157868.66;;;29.69;56.66
51287;BME280;37364;46.974;18.916;2023-07-20T10:04:55;157780.94;;;29.35;56.87
51287;BME280;37364;46.974;18.916;2023-07-20T10:07:27;157956.50;;;30.04;58.93
51287;BME280;37364;46.974;18.916;2023-07-20T10:10:02;157965.69;;;30.07;53.44
51287;BME280;37364;46.974;18.916;2023-07-20T10:12:33;157966.97;;;30.08;53.51
51287;BME280;37364;46.974;18.916;2023-07-20T10:15:10;157919.84;;;29.89;50.05
51287;BME280;37364;46.974;18.916;2023-07-20T10:17:49;157703.59;;;29.05;53.22
51287;BME280;37364;46.974;18.916;2023-07-20T10:20:22;157803.19;;;29.44;53.84
51287;BME280;37364;46.974;18.916;2023-07-20T10:22:53;157908.00;;;29.85;53.99
51287;BME280;37364;46.974;18.916;2023-07-20T10:25:27;157790.09;;;29.38;53.06
51287;BME280;37364;46.974;18.916;2023-07-20T10:27:58;157678.72;;;28.95;53.82
51287;BME280;37364;46.974;18.916;2023-07-20T10:30:29;157752.09;;;29.24;54.73
51287;BME280;37364;46.974;18.916;2023-07-20T10:33:00;157669.59;;;28.91;54.44
51287;BME280;37364;46.974;18.916;2023-07-20T10:35:50;157771.75;;;29.31;57.34
51287;BME280;37364;46.974;18.916;2023-07-20T10:38:38;157817.59;;;29.49;56.82
51287;BME280;37364;46.974;18.916;2023-07-20T10:41:21;157866.06;;;29.68;53.95
51287;BME280;37364;46.974;18.916;2023-07-20T10:43:57;157940.78;;;29.98;54.43
51287;BME280;37364;46.974;18.916;2023-07-20T10:46:44;157812.34;;;29.47;54.68
51287;BME280;37364;46.974;18.916;2023-07-20T10:49:15;157758.63;;;29.26;53.16
51287;BME280;37364;46.974;18.916;2023-07-20T10:51:49;157910.66;;;29.86;57.82
51287;BME280;37364;46.974;18.916;2023-07-20T10:54:47;157889.72;;;29.77;55.06
51287;BME280;37364;46.974;18.916;2023-07-20T10:57:27;157856.88;;;29.65;53.38
51287;BME280;37364;46.974;18.916;2023-07-20T11:00:09;157884.41;;;29.75;55.24
51287;BME280;37364;46.974;18.916;2023-07-20T11:02:48;157940.78;;;29.98;54.51
51287;BME280;37364;46.974;18.916;2023-07-20T11:05:39;157791.41;;;29.39;54.32
51287;BME280;37364;46.974;18.916;2023-07-20T11:08:10;157782.22;;;29.35;53.72
51287;BME280;37364;46.974;18.916;2023-07-20T11:10:41;157867.34;;;29.69;53.12
51287;BME280;37364;46.974;18.916;2023-07-20T11:13:22;157894.94;;;29.80;56.74
51287;BME280;37364;46.974;18.916;2023-07-20T11:16:03;157953.84;;;30.03;52.57
51287;BME280;37364;46.974;18.916;2023-07-20T11:18:34;158014.13;;;30.26;54.58
51287;BME280;37364;46.974;18.916;2023-07-20T11:21:09;158012.81;;;30.26;53.59
51287;BME280;37364;46.974;18.916;2023-07-20T11:23:39;157987.94;;;30.16;53.59
51287;BME280;37364;46.974;18.916;2023-07-20T11:26:10;157982.69;;;30.14;54.43
51287;BME280;37364;46.974;18.916;2023-07-20T11:28:42;158119.00;;;30.67;54.47
51287;BME280;37364;46.974;18.916;2023-07-20T11:31:14;158082.31;;;30.53;51.64
51287;BME280;37364;46.974;18.916;2023-07-20T11:33:44;158109.81;;;30.64;49.66
51287;BME280;37364;46.974;18.916;2023-07-20T11:36:14;157931.59;;;29.94;47.82
51287;BME280;37364;46.974;18.916;2023-07-20T11:38:47;157901.47;;;29.82;46.16
51287;BME280;37364;46.974;18.916;2023-07-20T11:41:18;157870.00;;;29.70;46.12
51287;BME280;37364;46.974;18.916;2023-07-20T11:43:51;157854.25;;;29.64;48.41
51287;BME280;37364;46.974;18.916;2023-07-20T11:46:21;158024.59;;;30.30;47.89
51287;BME280;37364;46.974;18.916;2023-07-20T11:48:57;157883.13;;;29.75;45.82
51287;BME280;37364;46.974;18.916;2023-07-20T11:51:28;157926.38;;;29.92;46.21
51287;BME280;37364;46.974;18.916;2023-07-20T11:53:59;157775.69;;;29.33;45.51
51287;BME280;37364;46.974;18.916;2023-07-20T11:56:31;157799.22;;;29.42;50.99
51287;BME280;37364;46.974;18.916;2023-07-20T11:59:03;157915.91;;;29.88;53.04
51287;BME280;37364;46.974;18.916;2023-07-20T12:01:34;157959.09;;;30.05;50.46
51287;BME280;37364;46.974;18.916;2023-07-20T12:04:04;157977.44;;;30.12;51.94
51287;BME280;37364;46.974;18.916;2023-07-20T12:06:34;157905.41;;;29.84;52.02
51287;BME280;37364;46.974;18.916;2023-07-20T12:09:04;157860.81;;;29.66;49.84
51287;BME280;37364;46.974;18.916;2023-07-20T12:11:35;157983.97;;;30.14;48.46
51287;BME280;37364;46.974;18.916;2023-07-20T12:14:09;158087.56;;;30.55;48.61
51287;BME280;37364;46.974;18.916;2023-07-20T12:16:44;158087.56;;;30.55;44.87
51287;BME280;37364;46.974;18.916;2023-07-20T12:19:14;157904.06;;;29.83;44.06
51287;BME280;37364;46.974;18.916;2023-07-20T12:21:45;157851.66;;;29.63;45.24
51287;BME280;37364;46.974;18.916;2023-07-20T12:24:17;157681.34;;;28.96;46.18
51287;BME280;37364;46.974;18.916;2023-07-20T12:26:47;157904.06;;;29.83;48.68
51287;BME280;37364;46.974;18.916;2023-07-20T12:29:20;158037.78;;;30.35;45.99
51287;BME280;37364;46.974;18.916;2023-07-20T12:31:50;158029.94;;;30.32;41.20
51287;BME280;37364;46.974;18.916;2023-07-20T12:34:20;157794.00;;;29.40;42.18
51287;BME280;37364;46.974;18.916;2023-07-20T12:36:50;157914.53;;;29.87;44.05
51287;BME280;37364;46.974;18.916;2023-07-20T12:39:24;157829.34;;;29.54;40.06
51287;BME280;37364;46.974;18.916;2023-07-20T12:41:54;157927.66;;;29.92;41.18
51287;BME280;37364;46.974;18.916;2023-07-20T12:44:27;157744.22;;;29.21;41.57
51287;BME280;37364;46.974;18.916;2023-07-20T12:46:57;157885.75;;;29.76;42.93
51287;BME280;37364;46.974;18.916;2023-07-20T12:49:27;157821.53;;;29.51;43.07
51287;BME280;37364;46.974;18.916;2023-07-20T12:51:57;157846.41;;;29.61;44.96
51287;BME280;37364;46.974;18.916;2023-07-20T12:54:27;157953.84;;;30.03;45.84
51287;BME280;37364;46.974;18.916;2023-07-20T12:56:58;157985.34;;;30.15;46.37
51287;BME280;37364;46.974;18.916;2023-07-20T12:59:35;158045.66;;;30.39;43.95
51287;BME280;37364;46.974;18.916;2023-07-20T13:02:05;157953.84;;;30.03;43.24
51287;BME280;37364;46.974;18.916;2023-07-20T13:04:36;157959.09;;;30.05;41.61